Time;durP1;ratioP1;P1;durP2;ratioP2;P2;SDS_P1;SDS_P2;PMS_P1;PMS_P2;Temp;Humidity;BMP_temperature;BMP_pressure;BME280_temperature;BME280_humidity;BME280_pressure;Samples;Min_cycle;Max_cycle;Signal;HPM_P1;HPM_P2
2021/12/28 00:01:12;;;;;;;24.52;6.20;;;;;;;6.60;100.00;99445.59;5011755;28;20040;-82
2021/12/28 00:03:42;;;;;;;21.92;5.70;;;;;;;6.57;100.00;99449.19;5041448;28;20124;-82
2021/12/28 00:06:08;;;;;;;23.90;6.40;;;;;;;6.56;100.00;99454.50;5040312;28;20021;-81
2021/12/28 00:08:34;;;;;;;19.30;5.60;;;;;;;6.53;100.00;99438.78;5042999;28;20091;-82
2021/12/28 00:11:00;;;;;;;29.33;6.57;;;;;;;6.47;100.00;99445.09;5042400;28;20021;-82
2021/12/28 00:13:27;;;;;;;25.42;6.20;;;;;;;6.46;100.00;99444.22;5028141;28;20063;-82
2021/12/28 00:18:22;;;;;;;20.75;6.35;;;;;;;6.40;100.00;99447.00;5040468;28;20469;-82
2021/12/28 00:20:57;;;;;;;25.70;5.70;;;;;;;6.37;100.00;99446.25;5033586;28;20041;-82
2021/12/28 00:23:28;;;;;;;15.40;5.47;;;;;;;6.39;100.00;99453.19;5036802;28;20034;-82
2021/12/28 00:25:55;;;;;;;17.73;5.80;;;;;;;6.37;100.00;99447.09;5032822;28;20500;-82
2021/12/28 00:28:22;;;;;;;28.67;6.18;;;;;;;6.35;100.00;99441.00;5015263;28;20038;-82
2021/12/28 00:30:48;;;;;;;23.60;5.90;;;;;;;6.34;100.00;99447.19;5015113;28;20056;-82
2021/12/28 00:33:15;;;;;;;28.52;5.65;;;;;;;6.32;100.00;99446.38;4998666;28;20021;-81
2021/12/28 00:35:41;;;;;;;28.73;5.88;;;;;;;6.32;100.00;99443.75;4999035;28;20073;-82
2021/12/28 00:38:09;;;;;;;32.00;6.38;;;;;;;6.29;100.00;99438.56;5014954;28;20100;-82
2021/12/28 00:40:36;;;;;;;25.35;5.88;;;;;;;6.28;100.00;99435.97;5015188;28;20045;-82
2021/12/28 00:43:03;;;;;;;17.20;4.95;;;;;;;6.27;100.00;99423.75;5037840;28;20036;-81
2021/12/28 00:45:29;;;;;;;22.55;5.50;;;;;;;6.27;100.00;99429.00;5034947;28;20040;-82
2021/12/28 00:47:55;;;;;;;27.52;7.10;;;;;;;6.22;100.00;99422.09;5051047;28;20029;-82
2021/12/28 00:50:21;;;;;;;30.77;7.13;;;;;;;6.19;100.00;99421.31;5051150;28;20124;-81
2021/12/28 00:52:48;;;;;;;33.10;6.05;;;;;;;6.21;100.00;99424.78;5050905;28;20056;-82
2021/12/28 00:55:15;;;;;;;25.98;5.80;;;;;;;6.18;100.00;99415.22;5050951;28;20433;-81
2021/12/28 00:57:41;;;;;;;24.08;5.57;;;;;;;6.17;100.00;99415.25;5050810;28;20041;-81
2021/12/28 01:00:12;;;;;;;27.80;5.28;;;;;;;6.15;100.00;99407.38;5034270;28;20049;-81
2021/12/28 01:02:39;;;;;;;24.90;6.22;;;;;;;6.16;100.00;99416.16;5034183;28;20421;-82
2021/12/28 01:05:05;;;;;;;29.02;5.05;;;;;;;6.15;100.00;99415.25;5049866;28;20032;-81
2021/12/28 01:07:30;;;;;;;30.60;5.47;;;;;;;6.18;100.00;99415.22;5052017;28;20055;-81
2021/12/28 01:09:56;;;;;;;25.48;5.82;;;;;;;6.18;100.00;99409.06;5050517;28;20041;-82
2021/12/28 01:12:22;;;;;;;31.42;6.82;;;;;;;6.23;100.00;99407.16;5034305;28;20037;-82
2021/12/28 01:14:47;;;;;;;18.02;4.78;;;;;;;6.21;100.00;99404.59;5007113;28;20408;-81
2021/12/28 01:17:13;;;;;;;26.23;5.93;;;;;;;6.20;100.00;99397.59;5030329;28;20034;-82
2021/12/28 01:19:39;;;;;;;27.33;5.63;;;;;;;6.20;100.00;99402.84;5030670;28;20037;-82
2021/12/28 01:22:05;;;;;;;34.17;5.97;;;;;;;6.18;100.00;99394.19;5030410;28;20398;-82
2021/12/28 01:24:32;;;;;;;28.15;5.53;;;;;;;6.18;100.00;99401.19;5030770;28;20030;-82
2021/12/28 01:26:58;;;;;;;19.30;5.68;;;;;;;6.14;100.00;99402.19;5031561;28;20025;-82
2021/12/28 01:29:24;;;;;;;25.98;6.03;;;;;;;6.11;100.00;99399.59;5013925;28;20036;-82
2021/12/28 01:31:50;;;;;;;34.72;5.63;;;;;;;6.07;100.00;99401.47;5030108;28;20092;-81
2021/12/28 01:34:15;;;;;;;21.67;5.40;;;;;;;6.05;100.00;99402.41;5030192;28;20178;-82
2021/12/28 01:36:41;;;;;;;28.85;5.20;;;;;;;6.01;100.00;99396.41;5017753;28;20451;-82
2021/12/28 01:39:07;;;;;;;23.33;5.78;;;;;;;5.96;100.00;99401.78;5041313;28;20033;-81
2021/12/28 01:41:34;;;;;;;31.40;5.57;;;;;;;5.93;100.00;99399.16;5049638;28;20068;-82
2021/12/28 01:44:04;;;;;;;25.15;4.82;;;;;;;5.89;100.00;99397.53;5028896;28;20041;-82
2021/12/28 01:46:31;;;;;;;28.73;5.63;;;;;;;5.87;100.00;99395.84;5051274;28;20040;-82
2021/12/28 01:48:56;;;;;;;24.38;5.53;;;;;;;5.86;100.00;99394.09;5049589;28;20029;-82
2021/12/28 01:51:23;;;;;;;29.00;5.43;;;;;;;5.85;100.00;99395.88;5016652;28;20067;-82
2021/12/28 01:53:53;;;;;;;25.10;5.40;;;;;;;5.79;100.00;99386.41;5033096;28;20035;-82
2021/12/28 01:56:26;;;;;;;32.65;6.25;;;;;;;5.78;100.00;99399.56;5049810;28;20394;-81
2021/12/28 01:58:51;;;;;;;31.17;5.85;;;;;;;5.77;100.00;99393.44;5051132;28;20117;-82
2021/12/28 02:01:18;;;;;;;25.05;6.60;;;;;;;5.77;100.00;99395.22;5033167;28;20070;-81
2021/12/28 02:03:44;;;;;;;21.88;5.63;;;;;;;5.77;100.00;99382.09;5049499;28;20503;-81
2021/12/28 02:06:11;;;;;;;21.05;5.47;;;;;;;5.77;100.00;99392.59;5032861;28;20071;-81
2021/12/28 02:08:38;;;;;;;27.85;5.55;;;;;;;5.72;100.00;99383.97;5051476;28;20143;-81
2021/12/28 02:11:05;;;;;;;19.42;4.53;;;;;;;5.70;100.00;99391.88;5033524;28;20021;-81
2021/12/28 02:13:31;;;;;;;31.75;5.95;;;;;;;5.70;100.00;99386.63;5050299;28;20064;-81
2021/12/28 02:15:58;;;;;;;26.60;5.68;;;;;;;5.69;100.00;99384.06;5030126;28;20087;-82
2021/12/28 02:18:25;;;;;;;32.92;6.45;;;;;;;5.70;100.00;99384.00;5031520;28;20040;-82
2021/12/28 02:20:52;;;;;;;28.23;4.90;;;;;;;5.71;100.00;99387.47;5038160;28;20052;-82
2021/12/28 02:23:17;;;;;;;25.95;5.82;;;;;;;5.72;100.00;99381.34;5037967;28;20063;-82
2021/12/28 02:25:44;;;;;;;19.65;4.60;;;;;;;5.75;100.00;99384.75;5035492;28;20411;-81
2021/12/28 02:28:11;;;;;;;24.38;5.63;;;;;;;5.75;100.00;99379.50;5005686;28;20041;-81
2021/12/28 02:30:40;;;;;;;26.42;5.65;;;;;;;5.74;100.00;99383.03;5027717;28;20068;-81
2021/12/28 02:33:06;;;;;;;28.48;5.20;;;;;;;5.79;100.00;99386.41;5040521;28;20105;-81
2021/12/28 02:35:33;;;;;;;30.00;5.57;;;;;;;5.79;100.00;99373.28;5023684;28;20154;-81
2021/12/28 02:37:59;;;;;;;31.42;5.78;;;;;;;5.82;100.00;99382.84;5031550;28;20053;-81
2021/12/28 02:40:28;;;;;;;29.08;5.53;;;;;;;5.84;100.00;99375.78;5037642;28;20091;-81
2021/12/28 02:42:56;;;;;;;34.83;5.93;;;;;;;5.84;100.00;99375.78;5036324;28;20079;-81
2021/12/28 02:45:52;;;;;;;33.50;6.00;;;;;;;5.86;100.00;99363.47;5013646;28;20056;-81
2021/12/28 02:48:18;;;;;;;30.60;5.47;;;;;;;5.87;100.00;99361.69;5038022;28;20120;-81
2021/12/28 02:50:48;;;;;;;26.10;4.90;;;;;;;5.87;100.00;99362.56;5005626;28;20046;-81
2021/12/28 02:53:16;;;;;;;26.33;5.95;;;;;;;5.88;100.00;99356.38;5039847;28;20128;-81
2021/12/28 02:55:41;;;;;;;38.55;6.05;;;;;;;5.91;100.00;99350.19;5040004;28;20464;-81
2021/12/28 02:58:21;;;;;;;38.10;6.10;;;;;;;5.91;100.00;99340.56;5023221;28;20049;-81
2021/12/28 03:00:52;;;;;;;22.60;6.13;;;;;;;5.91;100.00;99337.06;5041659;28;20037;-82
2021/12/28 03:03:20;;;;;;;34.72;6.43;;;;;;;5.93;100.00;99345.75;5040251;28;20033;-82
2021/12/28 03:05:48;;;;;;;26.75;5.20;;;;;;;5.94;100.00;99348.38;5041133;28;20021;-82
2021/12/28 03:08:16;;;;;;;35.83;6.35;;;;;;;5.96;100.00;99340.44;5038742;28;20081;-82
2021/12/28 03:10:43;;;;;;;35.53;6.22;;;;;;;5.97;100.00;99339.56;5013514;28;20091;-82
2021/12/28 03:13:13;;;;;;;32.78;5.28;;;;;;;5.99;100.00;99343.00;5030881;28;20396;-82
2021/12/28 03:15:38;;;;;;;38.33;5.68;;;;;;;6.02;100.00;99340.28;5038401;28;20037;-82
2021/12/28 03:18:04;;;;;;;28.30;5.68;;;;;;;6.02;100.00;99338.53;5020603;28;20434;-82
2021/12/28 03:20:30;;;;;;;24.20;5.80;;;;;;;6.01;100.00;99334.19;5013025;28;20033;-82
2021/12/28 03:22:55;;;;;;;39.10;6.43;;;;;;;6.00;100.00;99324.56;5030026;28;20044;-82
2021/12/28 03:25:21;;;;;;;33.22;6.13;;;;;;;6.02;100.00;99327.16;5015513;28;20175;-82
2021/12/28 03:27:46;;;;;;;56.75;7.38;;;;;;;6.07;100.00;99321.78;5028361;28;20041;-82
2021/12/28 03:30:14;;;;;;;28.83;5.15;;;;;;;6.05;100.00;99324.44;5034431;28;20082;-82
2021/12/28 03:32:40;;;;;;;29.27;6.78;;;;;;;6.06;100.00;99315.66;5042682;28;20032;-82
2021/12/28 03:35:09;;;;;;;45.15;6.88;;;;;;;6.09;100.00;99317.34;5033197;28;20477;-82
2021/12/28 03:37:35;;;;;;;29.92;5.55;;;;;;;6.07;100.00;99313.91;5034280;28;20531;-82
2021/12/28 03:40:04;;;;;;;28.77;5.32;;;;;;;6.08;100.00;99316.47;5032826;28;20496;-82
2021/12/28 03:42:29;;;;;;;34.00;5.80;;;;;;;6.08;100.00;99313.84;5032499;28;20037;-82
2021/12/28 03:44:55;;;;;;;32.35;5.25;;;;;;;6.12;100.00;99307.59;5016273;28;20076;-81
2021/12/28 03:47:20;;;;;;;34.15;5.78;;;;;;;6.13;100.00;99301.44;5015803;28;20034;-82
2021/12/28 03:49:46;;;;;;;31.38;5.47;;;;;;;6.16;100.00;99296.09;5016105;28;20084;-82
2021/12/28 03:52:11;;;;;;;34.88;4.97;;;;;;;6.17;100.00;99289.94;5016113;28;20040;-82
2021/12/28 03:54:37;;;;;;;18.30;4.28;;;;;;;6.17;100.00;99292.56;5032713;28;20033;-82
2021/12/28 03:57:03;;;;;;;36.45;5.47;;;;;;;6.29;100.00;99291.34;5015964;28;20040;-82
2021/12/28 03:59:29;;;;;;;25.38;5.45;;;;;;;6.29;100.00;99286.09;5016123;28;20357;-82
2021/12/28 04:01:55;;;;;;;30.52;5.10;;;;;;;6.30;100.00;99284.31;5041009;28;20346;-82
2021/12/28 04:04:22;;;;;;;32.55;5.30;;;;;;;6.33;100.00;99287.72;5007189;28;20037;-82
2021/12/28 04:06:47;;;;;;;37.58;5.55;;;;;;;6.39;100.00;99282.28;5032933;28;20044;-82
2021/12/28 04:09:20;;;;;;;41.53;6.75;;;;;;;6.43;100.00;99285.69;5022314;28;20119;-82
2021/12/28 04:11:45;;;;;;;36.47;5.18;;;;;;;6.44;100.00;99288.25;5041269;28;20464;-82
2021/12/28 04:14:11;;;;;;;27.38;5.28;;;;;;;6.45;100.00;99286.47;5039905;28;20024;-82
2021/12/28 04:16:37;;;;;;;23.95;4.85;;;;;;;6.45;100.00;99284.75;5041998;28;20060;-82
2021/12/28 04:19:04;;;;;;;36.22;5.50;;;;;;;6.47;100.00;99288.16;5010441;28;20120;-82
2021/12/28 04:21:29;;;;;;;28.95;4.90;;;;;;;6.51;100.00;99288.94;5043740;28;20027;-82
2021/12/28 04:23:55;;;;;;;38.42;6.97;;;;;;;6.53;100.00;99283.63;5043642;28;20037;-82
2021/12/28 04:26:22;;;;;;;43.60;5.43;;;;;;;6.53;100.00;99283.63;5035620;28;20472;-82
2021/12/28 04:28:48;;;;;;;28.92;4.78;;;;;;;6.52;100.00;99282.75;5040920;28;20025;-82
2021/12/28 04:31:14;;;;;;;37.10;5.15;;;;;;;6.55;100.00;99281.81;5047932;28;20139;-82
2021/12/28 04:33:40;;;;;;;32.83;5.32;;;;;;;6.58;100.00;99285.22;5013918;28;20134;-82
2021/12/28 04:36:11;;;;;;;39.47;5.22;;;;;;;6.60;100.00;99286.03;5026371;28;20044;-82
2021/12/28 04:38:38;;;;;;;25.90;4.03;;;;;;;6.61;100.00;99286.91;5042137;28;20565;-82
2021/12/28 04:41:05;;;;;;;32.50;5.10;;;;;;;6.61;100.00;99287.75;5043863;28;20041;-82
2021/12/28 04:43:31;;;;;;;25.58;4.97;;;;;;;6.63;100.00;99291.19;5035005;28;20037;-82
2021/12/28 04:45:57;;;;;;;28.10;5.07;;;;;;;6.67;100.00;99294.59;5046063;28;20028;-82
2021/12/28 04:48:23;;;;;;;33.13;4.75;;;;;;;6.67;100.00;99286.69;5029535;28;20053;-82
2021/12/28 04:50:48;;;;;;;44.17;6.03;;;;;;;6.70;100.00;99291.88;5028831;28;20108;-82
2021/12/28 04:53:14;;;;;;;33.03;5.30;;;;;;;6.72;100.00;99291.81;5007067;28;20137;-82
2021/12/28 04:55:43;;;;;;;29.88;5.00;;;;;;;6.72;100.00;99295.31;5022256;28;20029;-82
2021/12/28 04:58:09;;;;;;;38.50;5.22;;;;;;;6.76;100.00;99291.69;5034196;28;20056;-82
2021/12/28 05:00:35;;;;;;;26.02;4.72;;;;;;;6.78;100.00;99289.88;5044382;28;20048;-82
2021/12/28 05:03:01;;;;;;;24.38;4.50;;;;;;;6.81;100.00;99289.75;5025688;28;20113;-82
2021/12/28 05:05:27;;;;;;;27.58;4.63;;;;;;;6.82;100.00;99288.84;5046434;28;20061;-82
2021/12/28 05:07:53;;;;;;;38.03;5.63;;;;;;;6.83;100.00;99280.06;5026087;28;20118;-82
2021/12/28 05:10:19;;;;;;;32.47;4.80;;;;;;;6.82;100.00;99275.69;5042156;28;20076;-82
2021/12/28 05:12:44;;;;;;;33.25;5.18;;;;;;;6.88;100.00;99275.50;5023575;28;20074;-82
2021/12/28 05:15:10;;;;;;;22.55;4.03;;;;;;;6.88;100.00;99270.25;5042584;28;20454;-82
2021/12/28 05:17:36;;;;;;;25.77;4.57;;;;;;;6.93;100.00;99272.75;5034955;28;20199;-82
2021/12/28 05:20:04;;;;;;;29.27;5.75;;;;;;;6.93;100.00;99264.00;5050957;28;20041;-82
2021/12/28 05:22:29;;;;;;;18.13;4.43;;;;;;;6.96;100.00;99259.47;5051113;28;20048;-82
2021/12/28 05:24:55;;;;;;;29.73;4.82;;;;;;;7.00;100.00;99262.88;5034518;28;20033;-82
2021/12/28 05:27:21;;;;;;;23.67;3.88;;;;;;;6.96;100.00;99256.84;5051074;28;20021;-82
2021/12/28 05:29:46;;;;;;;32.63;4.43;;;;;;;7.00;100.00;99260.25;5034380;28;20051;-83
2021/12/28 05:32:12;;;;;;;25.15;5.22;;;;;;;7.01;100.00;99248.78;5050727;28;20041;-82
2021/12/28 05:34:38;;;;;;;24.60;3.90;;;;;;;7.03;100.00;99252.25;5034074;28;20504;-82
2021/12/28 05:37:04;;;;;;;20.02;3.83;;;;;;;7.04;100.00;99253.94;5050328;28;20218;-82
2021/12/28 05:39:30;;;;;;;24.73;4.25;;;;;;;7.06;100.00;99247.72;5034059;28;20186;-83
2021/12/28 05:41:56;;;;;;;25.95;4.32;;;;;;;7.04;100.00;99249.53;5052061;28;20116;-83
2021/12/28 05:44:23;;;;;;;24.15;3.88;;;;;;;7.06;100.00;99241.59;5050628;28;20029;-82
2021/12/28 05:46:49;;;;;;;15.63;3.63;;;;;;;7.11;100.00;99245.81;5050447;28;20135;-82
2021/12/28 05:49:15;;;;;;;26.95;4.15;;;;;;;7.13;100.00;99234.38;5033875;28;20033;-82
2021/12/28 05:51:41;;;;;;;21.65;4.03;;;;;;;7.11;100.00;99237.91;5033887;28;20041;-82
2021/12/28 05:54:06;;;;;;;16.73;3.28;;;;;;;7.14;100.00;99230.81;5050535;28;20028;-82
2021/12/28 05:56:32;;;;;;;22.67;3.92;;;;;;;7.13;100.00;99232.59;5050387;28;20045;-83
2021/12/28 05:58:58;;;;;;;18.58;4.07;;;;;;;7.15;100.00;99224.66;5051579;28;20029;-82
2021/12/28 06:01:23;;;;;;;25.77;5.03;;;;;;;7.15;100.00;99228.16;5033405;28;20045;-82
2021/12/28 06:03:49;;;;;;;23.45;4.25;;;;;;;7.17;100.00;99233.34;5017320;28;20033;-82
2021/12/28 06:06:14;;;;;;;19.35;3.83;;;;;;;7.16;100.00;99224.59;5033571;28;20099;-83
2021/12/28 06:08:40;;;;;;;19.20;3.70;;;;;;;7.22;100.00;99226.16;5017326;28;20017;-83
2021/12/28 06:11:07;;;;;;;19.73;4.07;;;;;;;7.22;100.00;99234.94;5033458;28;20076;-82
2021/12/28 06:13:32;;;;;;;20.73;4.25;;;;;;;7.22;100.00;99223.50;5049955;28;20047;-83
2021/12/28 06:15:59;;;;;;;23.92;3.88;;;;;;;7.24;100.00;99229.59;5013242;28;20041;-82
2021/12/28 06:18:24;;;;;;;15.32;3.78;;;;;;;7.25;100.00;99224.28;5029850;28;20048;-82
2021/12/28 06:20:50;;;;;;;20.80;3.47;;;;;;;7.27;100.00;99209.31;5013204;28;20022;-82
2021/12/28 06:23:17;;;;;;;17.98;3.40;;;;;;;7.27;100.00;99217.19;5030325;28;20029;-82
2021/12/28 06:25:43;;;;;;;25.08;3.42;;;;;;;7.28;100.00;99215.44;5027892;28;20061;-82
2021/12/28 06:28:08;;;;;;;14.57;2.67;;;;;;;7.25;100.00;99208.50;5029815;28;20025;-82
2021/12/28 06:30:35;;;;;;;19.60;3.13;;;;;;;7.30;100.00;99203.91;5032563;28;20554;-82
2021/12/28 06:33:02;;;;;;;17.50;3.20;;;;;;;7.30;100.00;99198.66;5048782;28;20124;-82
2021/12/28 06:35:27;;;;;;;13.63;3.08;;;;;;;7.27;100.00;99190.88;5050324;28;20036;-82
2021/12/28 06:37:53;;;;;;;11.48;3.03;;;;;;;7.32;100.00;99188.09;5050125;28;20039;-82
2021/12/28 06:40:18;;;;;;;17.30;2.80;;;;;;;7.33;100.00;99193.28;5048864;28;20077;-82
2021/12/28 06:42:44;;;;;;;17.92;3.05;;;;;;;7.35;100.00;99187.13;5031930;28;20033;-82
2021/12/28 06:45:10;;;;;;;15.68;3.65;;;;;;;7.27;100.00;99179.44;5032532;28;20044;-82
2021/12/28 06:47:35;;;;;;;15.55;3.65;;;;;;;7.36;100.00;99186.19;5032144;28;20021;-82
2021/12/28 06:50:02;;;;;;;18.40;3.10;;;;;;;7.34;100.00;99180.97;5032558;28;20532;-82
2021/12/28 06:52:27;;;;;;;17.13;3.38;;;;;;;7.36;100.00;99188.81;5049625;28;20040;-82
2021/12/28 06:54:53;;;;;;;16.45;3.40;;;;;;;7.34;100.00;99194.13;4999988;28;20449;-82
2021/12/28 06:57:18;;;;;;;9.10;2.83;;;;;;;7.33;100.00;99195.06;5032940;28;20036;-82
2021/12/28 06:59:45;;;;;;;12.07;2.95;;;;;;;7.31;100.00;99183.72;5033098;28;20045;-82
2021/12/28 07:02:15;;;;;;;13.82;3.28;;;;;;;7.30;100.00;99182.84;5032103;28;20075;-82
2021/12/28 07:04:41;;;;;;;17.63;3.33;;;;;;;7.34;100.00;99183.59;5049484;28;20041;-82
2021/12/28 07:07:07;;;;;;;13.40;3.00;;;;;;;7.35;100.00;99180.06;5049553;28;20040;-82
2021/12/28 07:09:34;;;;;;;10.60;2.53;;;;;;;7.36;100.00;99184.41;5032696;28;20055;-82
2021/12/28 07:12:00;;;;;;;16.65;3.00;;;;;;;7.36;100.00;99183.56;5051057;28;20113;-82
2021/12/28 07:14:25;;;;;;;14.50;3.08;;;;;;;7.38;100.00;99185.22;5049498;28;20468;-82
2021/12/28 07:16:51;;;;;;;15.63;3.17;;;;;;;7.39;100.00;99183.44;5041324;28;20017;-82
2021/12/28 07:19:16;;;;;;;11.82;2.50;;;;;;;7.41;100.00;99179.84;4996999;28;20038;-82
2021/12/28 07:21:42;;;;;;;13.38;2.83;;;;;;;7.41;100.00;99182.47;5031025;28;20535;-82
2021/12/28 07:24:09;;;;;;;12.65;2.50;;;;;;;7.41;100.00;99173.72;4996585;28;20056;-82
2021/12/28 07:26:35;;;;;;;9.75;2.58;;;;;;;7.39;100.00;99184.28;5012465;28;20075;-82
2021/12/28 07:29:01;;;;;;;10.13;2.50;;;;;;;7.41;100.00;99187.72;5013199;28;20042;-82
2021/12/28 07:31:27;;;;;;;9.60;2.35;;;;;;;7.43;100.00;99185.91;5030724;28;20025;-82
2021/12/28 07:33:53;;;;;;;11.82;2.45;;;;;;;7.46;100.00;99187.56;5029784;28;20132;-82
2021/12/28 07:36:19;;;;;;;10.23;2.08;;;;;;;7.46;100.00;99190.22;5029767;28;20116;-82
2021/12/28 07:38:44;;;;;;;16.40;2.70;;;;;;;7.45;100.00;99163.03;4995929;28;20416;-82
2021/12/28 07:41:10;;;;;;;10.45;2.88;;;;;;;7.52;100.00;99171.56;5029223;28;20049;-82
2021/12/28 07:43:35;;;;;;;12.65;2.70;;;;;;;7.54;100.00;99174.97;5012798;28;20038;-82
2021/12/28 07:46:01;;;;;;;11.35;2.33;;;;;;;7.53;100.00;99182.03;5029260;28;20025;-82
2021/12/28 07:48:27;;;;;;;12.32;2.58;;;;;;;7.54;100.00;99172.34;5030461;28;20385;-82
2021/12/28 07:50:52;;;;;;;6.40;2.08;;;;;;;7.55;100.00;99174.09;5030543;28;20037;-82
2021/12/28 07:53:18;;;;;;;11.90;2.45;;;;;;;7.59;100.00;99175.72;5000738;28;20033;-82
2021/12/28 07:55:43;;;;;;;9.00;2.03;;;;;;;7.60;100.00;99176.56;5012671;28;20029;-83
2021/12/28 07:58:09;;;;;;;10.15;2.40;;;;;;;7.63;100.00;99173.81;5029076;28;20508;-82
2021/12/28 08:00:35;;;;;;;10.35;2.72;;;;;;;7.69;100.00;99168.28;5029101;28;20025;-82
2021/12/28 08:03:03;;;;;;;13.10;2.83;;;;;;;7.65;100.00;99169.34;5012636;28;20136;-82
2021/12/28 08:05:30;;;;;;;7.05;2.30;;;;;;;7.66;100.00;99165.78;5012878;28;20040;-82
2021/12/28 08:07:56;;;;;;;7.40;2.13;;;;;;;7.66;100.00;99160.50;5042640;28;20548;-82
2021/12/28 08:10:22;;;;;;;7.03;1.85;;;;;;;7.66;100.00;99155.25;5027595;28;20124;-82
2021/12/28 08:12:49;;;;;;;7.43;2.25;;;;;;;7.71;100.00;99155.94;5025254;28;20558;-82
2021/12/28 08:15:15;;;;;;;12.15;3.25;;;;;;;7.71;100.00;99159.41;5026472;28;20150;-82
2021/12/28 08:17:41;;;;;;;5.60;2.35;;;;;;;7.74;100.00;99158.47;5011626;28;20453;-82
2021/12/28 08:20:09;;;;;;;8.52;2.67;;;;;;;7.73;100.00;99159.38;5013890;28;20167;-82
2021/12/28 08:22:36;;;;;;;5.82;2.35;;;;;;;7.75;100.00;99168.09;5047384;28;20040;-82
2021/12/28 08:25:02;;;;;;;7.80;2.97;;;;;;;7.74;100.00;99159.31;5051689;28;20025;-82
2021/12/28 08:27:28;;;;;;;9.02;3.10;;;;;;;7.79;100.00;99161.78;5051964;28;20037;-82
2021/12/28 08:29:53;;;;;;;8.77;3.05;;;;;;;7.80;100.00;99157.38;5051774;28;20036;-82
2021/12/28 08:32:19;;;;;;;8.75;3.38;;;;;;;7.82;100.00;99152.91;5034630;28;20041;-82
2021/12/28 08:34:44;;;;;;;7.60;3.38;;;;;;;7.82;100.00;99152.91;5018164;28;20339;-82
2021/12/28 08:37:11;;;;;;;9.00;3.63;;;;;;;7.83;100.00;99150.19;5030849;28;20050;-82
2021/12/28 08:39:37;;;;;;;6.97;3.38;;;;;;;7.87;100.00;99149.19;5031559;28;20124;-82
2021/12/28 08:42:04;;;;;;;13.57;3.92;;;;;;;7.89;100.00;99139.44;5031405;28;20051;-82
2021/12/28 08:44:29;;;;;;;8.05;3.22;;;;;;;7.86;100.00;99143.97;5014646;28;20045;-81
2021/12/28 08:46:56;;;;;;;12.35;3.60;;;;;;;7.88;100.00;99144.75;5031051;28;20045;-82
2021/12/28 08:49:22;;;;;;;8.23;3.70;;;;;;;7.93;100.00;99148.09;5014708;28;20048;-82
2021/12/28 08:51:48;;;;;;;8.13;3.78;;;;;;;7.93;100.00;99141.03;5031204;28;20044;-83
2021/12/28 08:54:13;;;;;;;9.52;4.00;;;;;;;7.95;100.00;99138.34;5031283;28;20029;-83
2021/12/28 08:56:39;;;;;;;7.93;4.40;;;;;;;8.00;100.00;99146.09;4998532;28;20041;-83
2021/12/28 08:59:04;;;;;;;7.53;4.20;;;;;;;8.03;100.00;99153.88;5031129;28;20072;-83
2021/12/28 09:01:30;;;;;;;6.20;4.40;;;;;;;8.01;100.00;99135.50;5014512;28;20423;-82
2021/12/28 09:03:55;;;;;;;12.43;5.03;;;;;;;8.03;100.00;99141.53;5032348;28;20132;-80
2021/12/28 09:06:21;;;;;;;8.02;4.88;;;;;;;8.05;100.00;99128.31;5032492;28;20028;-83
2021/12/28 09:08:47;;;;;;;8.23;5.10;;;;;;;8.07;100.00;99134.38;5031150;28;20103;-81
2021/12/28 09:11:13;;;;;;;8.65;5.30;;;;;;;8.07;100.00;99131.75;5030887;28;20128;-83
2021/12/28 09:13:38;;;;;;;10.25;5.45;;;;;;;8.07;100.00;99129.97;5030892;28;20056;-83
2021/12/28 09:16:05;;;;;;;9.45;5.32;;;;;;;8.07;100.00;99129.97;5030832;28;20481;-82
2021/12/28 09:18:31;;;;;;;11.57;5.38;;;;;;;8.08;100.00;99136.94;5030829;28;20045;-80
2021/12/28 09:20:57;;;;;;;9.13;5.97;;;;;;;8.13;100.00;99129.72;5030623;28;20026;-80
2021/12/28 09:23:23;;;;;;;6.38;5.32;;;;;;;8.12;100.00;99132.44;5030655;28;20079;-82
2021/12/28 09:25:49;;;;;;;14.13;5.75;;;;;;;8.17;100.00;99128.69;5030001;28;20021;-82
2021/12/28 09:28:14;;;;;;;9.73;6.10;;;;;;;8.19;100.00;99123.34;5030412;28;20159;-82
2021/12/28 09:30:42;;;;;;;10.15;6.70;;;;;;;8.24;100.00;99124.03;5014070;28;20075;-82
2021/12/28 09:33:08;;;;;;;7.57;6.22;;;;;;;8.22;100.00;99110.03;5030148;28;20338;-82
2021/12/28 09:35:34;;;;;;;9.35;6.00;;;;;;;8.29;100.00;99110.66;5030385;28;20116;-82
2021/12/28 09:38:00;;;;;;;10.30;6.57;;;;;;;8.30;100.00;99113.22;5013837;28;20033;-84
2021/12/28 09:40:26;;;;;;;12.52;7.38;;;;;;;8.31;100.00;99099.13;5031824;28;20081;-82
2021/12/28 09:42:52;;;;;;;8.30;6.35;;;;;;;8.39;100.00;99104.09;5013752;28;20069;-82
2021/12/28 09:45:18;;;;;;;8.52;6.30;;;;;;;8.40;100.00;99101.41;5046504;28;20044;-81
2021/12/28 09:47:44;;;;;;;9.60;6.00;;;;;;;8.41;100.00;99099.66;5029502;28;20021;-82
2021/12/28 09:50:14;;;;;;;10.63;6.38;;;;;;;8.53;100.00;99103.53;5030813;28;20132;-81
2021/12/28 09:52:42;;;;;;;10.50;5.80;;;;;;;8.47;100.00;99107.31;5030203;28;20037;-82
2021/12/28 09:55:09;;;;;;;7.45;5.82;;;;;;;8.49;100.00;99094.06;5030221;28;20059;-82
2021/12/28 09:57:35;;;;;;;5.90;5.38;;;;;;;8.49;100.00;99094.06;5031113;28;20060;-82
2021/12/28 10:00:00;;;;;;;5.65;4.95;;;;;;;8.50;100.00;99093.97;5029553;28;20057;-81
2021/12/28 10:02:26;;;;;;;5.90;4.80;;;;;;;8.52;100.00;99088.66;5031319;28;20052;-81
2021/12/28 10:05:07;;;;;;;6.97;5.78;;;;;;;8.52;100.00;99094.78;5047075;28;20032;-81
2021/12/28 10:07:36;;;;;;;6.05;5.45;;;;;;;8.56;100.00;99077.91;5051281;28;20025;-81
2021/12/28 10:10:05;;;;;;;6.78;5.68;;;;;;;8.57;100.00;99070.84;5032799;28;20020;-81
2021/12/28 10:12:36;;;;;;;6.20;5.25;;;;;;;8.61;100.00;99065.38;5049786;28;20051;-82
2021/12/28 10:15:06;;;;;;;7.75;4.85;;;;;;;8.67;100.00;99074.81;5049905;28;20068;-82
2021/12/28 10:17:33;;;;;;;11.15;4.85;;;;;;;8.71;100.00;99068.50;5050799;28;20090;-82
2021/12/28 10:20:09;;;;;;;4.20;3.80;;;;;;;8.73;100.00;99049.94;5049566;28;20021;-81
2021/12/28 10:22:39;;;;;;;5.18;3.75;;;;;;;8.76;100.00;99050.69;5050713;28;20052;-82
2021/12/28 10:25:09;;;;;;;9.27;4.78;;;;;;;8.75;100.00;99051.59;5049694;28;20029;-82
2021/12/28 10:27:37;;;;;;;7.90;3.83;;;;;;;8.75;100.00;99045.44;5050507;28;20029;-82
2021/12/28 10:30:21;;;;;;;5.65;3.90;;;;;;;8.77;100.00;99036.53;5033028;28;20029;-83
2021/12/28 10:32:53;;;;;;;6.70;4.05;;;;;;;8.80;100.00;99032.91;5049446;28;20029;-81
2021/12/28 10:35:40;;;;;;;5.60;3.58;;;;;;;8.85;100.00;99020.38;5033025;28;20098;-81
2021/12/28 10:38:09;;;;;;;5.95;4.13;;;;;;;8.90;100.00;99022.81;5049762;28;20041;-82
2021/12/28 10:40:48;;;;;;;4.68;3.40;;;;;;;8.89;100.00;99010.53;5049290;28;20067;-82
2021/12/28 10:43:25;;;;;;;6.63;3.05;;;;;;;8.96;100.00;99012.00;5049106;28;20075;-83
2021/12/28 10:45:59;;;;;;;4.70;3.00;;;;;;;8.96;100.00;99010.19;5049189;28;20075;-83
2021/12/28 10:48:42;;;;;;;4.78;3.15;;;;;;;8.95;100.00;99011.16;5050788;28;20066;-83
2021/12/28 10:51:12;;;;;;;7.20;2.15;;;;;;;8.99;100.00;99011.84;5049300;28;20132;-84
2021/12/28 10:53:49;;;;;;;3.47;2.03;;;;;;;9.01;100.00;99013.50;5046154;28;20500;-83
2021/12/28 10:56:15;;;;;;;5.45;2.80;;;;;;;8.99;100.00;99012.69;5030101;28;20365;-82
2021/12/28 10:58:45;;;;;;;5.80;2.80;;;;;;;9.00;100.00;99013.56;5013175;28;20030;-83
2021/12/28 11:01:17;;;;;;;5.90;2.47;;;;;;;9.03;100.00;99013.44;5031349;28;20036;-82
2021/12/28 11:03:48;;;;;;;6.53;2.38;;;;;;;9.08;100.00;99013.25;5031346;28;20288;-83
2021/12/28 11:06:19;;;;;;;4.07;2.38;;;;;;;9.08;100.00;98997.41;5029894;28;20052;-81
2021/12/28 11:08:50;;;;;;;5.10;2.58;;;;;;;9.07;100.00;98993.88;5029964;28;20029;-82
2021/12/28 11:11:18;;;;;;;;;;;;;;;9.10;100.00;98992.88;5031317;28;20037;-82
2021/12/28 11:13:44;;;;;;;3.03;2.10;;;;;;;9.04;100.00;98984.31;5031400;28;20423;-84
2021/12/28 11:16:12;;;;;;;3.70;2.55;;;;;;;9.03;100.00;98979.13;5030026;28;20548;-84
2021/12/28 11:18:44;;;;;;;9.90;2.53;;;;;;;9.01;100.00;98980.97;5029634;28;20064;-83
2021/12/28 11:21:24;;;;;;;7.72;2.88;;;;;;;8.98;100.00;98975.81;5030943;28;20484;-82
2021/12/28 11:23:53;;;;;;;5.85;2.28;;;;;;;8.99;100.00;98981.03;5031048;28;20041;-81
2021/12/28 11:26:22;;;;;;;5.47;2.40;;;;;;;8.96;100.00;98960.03;5048112;28;20033;-81
2021/12/28 11:29:09;;;;;;;3.63;2.28;;;;;;;8.99;100.00;98970.47;5050922;28;20373;-82